sensor_id;sensor_type;location;lat;lon;timestamp;pressure;altitude;pressure_sealevel;temperature;humidity
49841;BME280;35738;49.890;5.930;2023-02-12T00:01:15;97691.72;;;3.99;100.00
49841;BME280;35738;49.890;5.930;2023-02-12T00:03:42;97693.63;;;3.98;100.00
49841;BME280;35738;49.890;5.930;2023-02-12T00:06:09;97694.53;;;4.04;100.00
49841;BME280;35738;49.890;5.930;2023-02-12T00:08:40;97698.44;;;3.79;100.00
49841;BME280;35738;49.890;5.930;2023-02-12T00:11:18;97708.25;;;3.80;100.00
49841;BME280;35738;49.890;5.930;2023-02-12T00:13:45;97699.69;;;3.89;100.00
49841;BME280;35738;49.890;5.930;2023-02-12T00:16:14;97698.63;;;3.90;100.00
49841;BME280;35738;49.890;5.930;2023-02-12T00:18:42;97700.56;;;3.77;100.00
49841;BME280;35738;49.890;5.930;2023-02-12T00:21:09;97703.59;;;3.93;100.00
49841;BME280;35738;49.890;5.930;2023-02-12T00:23:36;97701.34;;;3.90;100.00
49841;BME280;35738;49.890;5.930;2023-02-12T00:26:08;97699.34;;;3.85;100.00
49841;BME280;35738;49.890;5.930;2023-02-12T00:28:35;97693.53;;;3.93;100.00
49841;BME280;35738;49.890;5.930;2023-02-12T00:31:11;97701.72;;;3.81;100.00
49841;BME280;35738;49.890;5.930;2023-02-12T00:33:38;97704.69;;;3.80;100.00
49841;BME280;35738;49.890;5.930;2023-02-12T00:36:06;97699.09;;;3.87;100.00
49841;BME280;35738;49.890;5.930;2023-02-12T00:38:33;97698.34;;;4.03;100.00
49841;BME280;35738;49.890;5.930;2023-02-12T00:41:00;97689.78;;;4.11;100.00
49841;BME280;35738;49.890;5.930;2023-02-12T00:43:27;97689.19;;;4.09;100.00
49841;BME280;35738;49.890;5.930;2023-02-12T00:45:53;97683.50;;;4.10;100.00
49841;BME280;35738;49.890;5.930;2023-02-12T00:48:20;97687.19;;;4.04;100.00
49841;BME280;35738;49.890;5.930;2023-02-12T00:50:48;97680.78;;;3.82;100.00
49841;BME280;35738;49.890;5.930;2023-02-12T00:53:15;97681.84;;;3.81;100.00
49841;BME280;35738;49.890;5.930;2023-02-12T00:55:42;97679.28;;;3.74;100.00
49841;BME280;35738;49.890;5.930;2023-02-12T00:58:09;97684.13;;;3.61;100.00
49841;BME280;35738;49.890;5.930;2023-02-12T01:00:36;97677.19;;;3.93;100.00
49841;BME280;35738;49.890;5.930;2023-02-12T01:03:03;97682.50;;;4.00;100.00
49841;BME280;35738;49.890;5.930;2023-02-12T01:05:31;97678.34;;;3.97;100.00
49841;BME280;35738;49.890;5.930;2023-02-12T01:07:57;97681.19;;;4.02;100.00
49841;BME280;35738;49.890;5.930;2023-02-12T01:10:24;97680.28;;;4.13;100.00
49841;BME280;35738;49.890;5.930;2023-02-12T01:12:51;97682.84;;;4.20;100.00
49841;BME280;35738;49.890;5.930;2023-02-12T01:15:18;97673.97;;;4.25;100.00
49841;BME280;35738;49.890;5.930;2023-02-12T01:17:45;97675.59;;;4.26;100.00
49841;BME280;35738;49.890;5.930;2023-02-12T01:20:15;97671.47;;;4.23;100.00
49841;BME280;35738;49.890;5.930;2023-02-12T01:22:43;97678.00;;;4.22;100.00
49841;BME280;35738;49.890;5.930;2023-02-12T01:25:10;97678.81;;;4.23;100.00
49841;BME280;35738;49.890;5.930;2023-02-12T01:27:37;97680.63;;;4.17;100.00
49841;BME280;35738;49.890;5.930;2023-02-12T01:30:06;97678.91;;;4.28;100.00
49841;BME280;35738;49.890;5.930;2023-02-12T01:32:33;97686.00;;;4.29;100.00
49841;BME280;35738;49.890;5.930;2023-02-12T01:35:00;97677.25;;;4.27;100.00
49841;BME280;35738;49.890;5.930;2023-02-12T01:37:27;97673.13;;;4.24;100.00
49841;BME280;35738;49.890;5.930;2023-02-12T01:39:53;97670.97;;;4.26;100.00
49841;BME280;35738;49.890;5.930;2023-02-12T01:42:20;97685.50;;;4.15;100.00
49841;BME280;35738;49.890;5.930;2023-02-12T01:47:43;97677.13;;;4.05;100.00
49841;BME280;35738;49.890;5.930;2023-02-12T01:50:14;97679.63;;;4.06;100.00
49841;BME280;35738;49.890;5.930;2023-02-12T01:52:45;97681.63;;;4.28;100.00
49841;BME280;35738;49.890;5.930;2023-02-12T01:55:14;97676.09;;;4.23;100.00
49841;BME280;35738;49.890;5.930;2023-02-12T01:57:42;97673.38;;;4.23;100.00
49841;BME280;35738;49.890;5.930;2023-02-12T02:00:17;97667.19;;;4.27;100.00
49841;BME280;35738;49.890;5.930;2023-02-12T02:02:48;97670.09;;;4.37;98.71
49841;BME280;35738;49.890;5.930;2023-02-12T02:05:24;97664.47;;;4.44;99.91
49841;BME280;35738;49.890;5.930;2023-02-12T02:07:53;97669.25;;;4.37;99.98
49841;BME280;35738;49.890;5.930;2023-02-12T02:10:20;97671.50;;;4.40;99.05
49841;BME280;35738;49.890;5.930;2023-02-12T02:12:47;97668.16;;;4.50;100.00
49841;BME280;35738;49.890;5.930;2023-02-12T02:15:32;97669.66;;;4.29;100.00
49841;BME280;35738;49.890;5.930;2023-02-12T02:18:11;97668.03;;;4.28;100.00
49841;BME280;35738;49.890;5.930;2023-02-12T02:31:57;97671.31;;;4.30;99.88
49841;BME280;35738;49.890;5.930;2023-02-12T02:39:54;97658.09;;;4.22;100.00
49841;BME280;35738;49.890;5.930;2023-02-12T02:45:18;97659.03;;;4.27;100.00
49841;BME280;35738;49.890;5.930;2023-02-12T02:47:54;97654.00;;;4.36;100.00
49841;BME280;35738;49.890;5.930;2023-02-12T02:50:24;97651.34;;;4.41;100.00
49841;BME280;35738;49.890;5.930;2023-02-12T02:53:02;97647.06;;;4.45;100.00
49841;BME280;35738;49.890;5.930;2023-02-12T02:55:35;97652.59;;;4.33;100.00
49841;BME280;35738;49.890;5.930;2023-02-12T02:58:12;97650.19;;;4.20;100.00
49841;BME280;35738;49.890;5.930;2023-02-12T03:01:03;97649.19;;;4.26;100.00
49841;BME280;35738;49.890;5.930;2023-02-12T03:03:35;97641.75;;;4.22;100.00
49841;BME280;35738;49.890;5.930;2023-02-12T03:06:09;97636.06;;;4.23;100.00
49841;BME280;35738;49.890;5.930;2023-02-12T03:08:41;97637.81;;;4.29;100.00
49841;BME280;35738;49.890;5.930;2023-02-12T03:13:48;97642.50;;;4.17;100.00
49841;BME280;35738;49.890;5.930;2023-02-12T03:16:22;97637.63;;;4.02;100.00
49841;BME280;35738;49.890;5.930;2023-02-12T03:24:30;97631.41;;;3.90;100.00
49841;BME280;35738;49.890;5.930;2023-02-12T03:27:15;97635.59;;;3.81;100.00
49841;BME280;35738;49.890;5.930;2023-02-12T03:29:43;97633.78;;;3.87;100.00
49841;BME280;35738;49.890;5.930;2023-02-12T03:34:53;97639.13;;;3.81;100.00
49841;BME280;35738;49.890;5.930;2023-02-12T03:37:29;97633.94;;;3.80;100.00
49841;BME280;35738;49.890;5.930;2023-02-12T03:40:17;97627.19;;;3.82;100.00
49841;BME280;35738;49.890;5.930;2023-02-12T03:50:43;97629.06;;;3.82;100.00
49841;BME280;35738;49.890;5.930;2023-02-12T03:53:11;97632.28;;;3.79;100.00
49841;BME280;35738;49.890;5.930;2023-02-12T03:55:41;97621.97;;;3.81;100.00
49841;BME280;35738;49.890;5.930;2023-02-12T03:58:19;97633.34;;;3.78;100.00
49841;BME280;35738;49.890;5.930;2023-02-12T04:00:47;97622.72;;;3.76;100.00
49841;BME280;35738;49.890;5.930;2023-02-12T04:03:13;97621.50;;;3.84;100.00
49841;BME280;35738;49.890;5.930;2023-02-12T04:05:40;97624.94;;;3.79;100.00
49841;BME280;35738;49.890;5.930;2023-02-12T04:08:08;97628.34;;;3.87;100.00
49841;BME280;35738;49.890;5.930;2023-02-12T04:10:43;97637.38;;;3.75;100.00
49841;BME280;35738;49.890;5.930;2023-02-12T04:13:27;97634.66;;;3.75;100.00
49841;BME280;35738;49.890;5.930;2023-02-12T04:18:48;97642.59;;;3.77;100.00
49841;BME280;35738;49.890;5.930;2023-02-12T04:21:40;97633.13;;;3.79;100.00
49841;BME280;35738;49.890;5.930;2023-02-12T04:24:42;97640.78;;;3.82;100.00
49841;BME280;35738;49.890;5.930;2023-02-12T04:27:21;97645.78;;;3.74;100.00
49841;BME280;35738;49.890;5.930;2023-02-12T04:29:58;97639.16;;;3.70;100.00
49841;BME280;35738;49.890;5.930;2023-02-12T04:32:34;97647.44;;;4.03;100.00
49841;BME280;35738;49.890;5.930;2023-02-12T04:35:31;97641.81;;;3.93;100.00
49841;BME280;35738;49.890;5.930;2023-02-12T04:38:15;97637.56;;;3.86;100.00
49841;BME280;35738;49.890;5.930;2023-02-12T04:40:44;97647.06;;;3.83;100.00
49841;BME280;35738;49.890;5.930;2023-02-12T04:43:12;97647.44;;;3.75;100.00
49841;BME280;35738;49.890;5.930;2023-02-12T04:45:38;97655.28;;;3.60;100.00
49841;BME280;35738;49.890;5.930;2023-02-12T04:48:05;97646.88;;;3.61;100.00
49841;BME280;35738;49.890;5.930;2023-02-12T04:50:41;97650.91;;;3.59;100.00
49841;BME280;35738;49.890;5.930;2023-02-12T04:53:09;97654.69;;;3.58;100.00
49841;BME280;35738;49.890;5.930;2023-02-12T04:55:36;97658.47;;;3.57;100.00
49841;BME280;35738;49.890;5.930;2023-02-12T04:58:03;97648.66;;;3.56;100.00
49841;BME280;35738;49.890;5.930;2023-02-12T05:00:30;97647.81;;;3.67;100.00
49841;BME280;35738;49.890;5.930;2023-02-12T05:02:57;97654.41;;;3.71;100.00
49841;BME280;35738;49.890;5.930;2023-02-12T05:05:24;97653.00;;;3.68;100.00
49841;BME280;35738;49.890;5.930;2023-02-12T05:07:51;97652.41;;;3.66;100.00
49841;BME280;35738;49.890;5.930;2023-02-12T05:10:17;97648.91;;;3.54;100.00
49841;BME280;35738;49.890;5.930;2023-02-12T05:12:44;97651.00;;;3.64;100.00
49841;BME280;35738;49.890;5.930;2023-02-12T05:15:11;97655.03;;;3.73;100.00
49841;BME280;35738;49.890;5.930;2023-02-12T05:17:37;97664.75;;;3.57;100.00
49841;BME280;35738;49.890;5.930;2023-02-12T05:20:04;97656.94;;;3.61;100.00
49841;BME280;35738;49.890;5.930;2023-02-12T05:22:31;97662.38;;;3.61;100.00
49841;BME280;35738;49.890;5.930;2023-02-12T05:24:58;97664.72;;;3.69;100.00
49841;BME280;35738;49.890;5.930;2023-02-12T05:27:24;97665.09;;;3.61;100.00
49841;BME280;35738;49.890;5.930;2023-02-12T05:29:51;97657.63;;;3.68;100.00
49841;BME280;35738;49.890;5.930;2023-02-12T05:32:17;97666.66;;;3.57;100.00
49841;BME280;35738;49.890;5.930;2023-02-12T05:34:44;97664.25;;;3.72;100.00
49841;BME280;35738;49.890;5.930;2023-02-12T05:37:11;97657.53;;;3.63;100.00
49841;BME280;35738;49.890;5.930;2023-02-12T05:39:37;97654.47;;;3.59;100.00
49841;BME280;35738;49.890;5.930;2023-02-12T05:42:04;97647.84;;;3.55;100.00
49841;BME280;35738;49.890;5.930;2023-02-12T05:44:31;97655.13;;;3.66;100.00
49841;BME280;35738;49.890;5.930;2023-02-12T05:46:57;97661.66;;;3.65;100.00
49841;BME280;35738;49.890;5.930;2023-02-12T05:49:24;97660.56;;;3.78;100.00
49841;BME280;35738;49.890;5.930;2023-02-12T05:51:50;97658.56;;;3.73;100.00
49841;BME280;35738;49.890;5.930;2023-02-12T05:54:17;97658.19;;;3.70;100.00
49841;BME280;35738;49.890;5.930;2023-02-12T05:56:46;97664.25;;;3.72;100.00
49841;BME280;35738;49.890;5.930;2023-02-12T05:59:19;97660.31;;;3.79;100.00
49841;BME280;35738;49.890;5.930;2023-02-12T06:01:48;97662.66;;;3.88;100.00
49841;BME280;35738;49.890;5.930;2023-02-12T06:04:21;97661.63;;;3.77;100.00
49841;BME280;35738;49.890;5.930;2023-02-12T06:06:50;97656.91;;;3.72;100.00
49841;BME280;35738;49.890;5.930;2023-02-12T06:09:17;97663.09;;;3.56;100.00
49841;BME280;35738;49.890;5.930;2023-02-12T06:11:44;97663.66;;;3.70;100.00
49841;BME280;35738;49.890;5.930;2023-02-12T06:14:13;97656.00;;;3.95;100.00
49841;BME280;35738;49.890;5.930;2023-02-12T06:16:49;97660.09;;;3.81;100.00
49841;BME280;35738;49.890;5.930;2023-02-12T06:19:17;97653.97;;;3.74;100.00
49841;BME280;35738;49.890;5.930;2023-02-12T06:21:44;97654.81;;;3.63;100.00
49841;BME280;35738;49.890;5.930;2023-02-12T06:24:12;97654.22;;;3.61;100.00
49841;BME280;35738;49.890;5.930;2023-02-12T06:26:39;97652.94;;;3.51;100.00
49841;BME280;35738;49.890;5.930;2023-02-12T06:29:06;97656.09;;;3.60;100.00
49841;BME280;35738;49.890;5.930;2023-02-12T06:31:35;97655.25;;;3.71;100.00
49841;BME280;35738;49.890;5.930;2023-02-12T06:34:04;97653.25;;;3.67;100.00
49841;BME280;35738;49.890;5.930;2023-02-12T06:36:31;97654.53;;;3.76;100.00
49841;BME280;35738;49.890;5.930;2023-02-12T06:39:00;97651.00;;;3.64;100.00
49841;BME280;35738;49.890;5.930;2023-02-12T06:41:28;97661.63;;;3.77;100.00
49841;BME280;35738;49.890;5.930;2023-02-12T06:43:55;97655.13;;;3.78;100.00
49841;BME280;35738;49.890;5.930;2023-02-12T06:46:22;97660.59;;;3.66;100.00
49841;BME280;35738;49.890;5.930;2023-02-12T06:48:56;97658.00;;;3.60;100.00
49841;BME280;35738;49.890;5.930;2023-02-12T06:51:24;97664.13;;;3.67;100.00
49841;BME280;35738;49.890;5.930;2023-02-12T06:53:52;97660.25;;;3.63;100.00
49841;BME280;35738;49.890;5.930;2023-02-12T06:56:20;97663.41;;;3.71;100.00
49841;BME280;35738;49.890;5.930;2023-02-12T06:58:52;97659.41;;;3.62;100.00
49841;BME280;35738;49.890;5.930;2023-02-12T07:01:22;97664.94;;;3.67;100.00
49841;BME280;35738;49.890;5.930;2023-02-12T07:03:54;97666.44;;;3.87;100.00
49841;BME280;35738;49.890;5.930;2023-02-12T07:06:22;97665.53;;;3.81;100.00
49841;BME280;35738;49.890;5.930;2023-02-12T07:08:50;97679.97;;;3.81;100.00
49841;BME280;35738;49.890;5.930;2023-02-12T07:11:16;97676.66;;;3.79;100.00
49841;BME280;35738;49.890;5.930;2023-02-12T07:13:44;97688.50;;;3.73;100.00
49841;BME280;35738;49.890;5.930;2023-02-12T07:16:13;97683.50;;;3.82;100.00
49841;BME280;35738;49.890;5.930;2023-02-12T07:18:42;97684.81;;;3.68;100.00
49841;BME280;35738;49.890;5.930;2023-02-12T07:21:10;97689.09;;;3.75;100.00
49841;BME280;35738;49.890;5.930;2023-02-12T07:23:37;97688.94;;;3.82;100.00
49841;BME280;35738;49.890;5.930;2023-02-12T07:26:10;97694.19;;;3.72;100.00
49841;BME280;35738;49.890;5.930;2023-02-12T07:28:37;97690.84;;;3.81;100.00
49841;BME280;35738;49.890;5.930;2023-02-12T07:31:09;97697.75;;;3.72;100.00
49841;BME280;35738;49.890;5.930;2023-02-12T07:33:38;97692.63;;;3.76;100.00
49841;BME280;35738;49.890;5.930;2023-02-12T07:36:08;97692.41;;;3.66;100.00
49841;BME280;35738;49.890;5.930;2023-02-12T07:38:35;97691.91;;;3.69;100.00
49841;BME280;35738;49.890;5.930;2023-02-12T07:41:10;97704.59;;;3.63;100.00
49841;BME280;35738;49.890;5.930;2023-02-12T07:43:42;97702.59;;;3.59;100.00
49841;BME280;35738;49.890;5.930;2023-02-12T07:46:14;97706.13;;;3.71;100.00
49841;BME280;35738;49.890;5.930;2023-02-12T07:48:43;97705.66;;;3.74;100.00
49841;BME280;35738;49.890;5.930;2023-02-12T07:51:13;97712.16;;;3.61;100.00
49841;BME280;35738;49.890;5.930;2023-02-12T07:53:41;97704.22;;;3.71;100.00
49841;BME280;35738;49.890;5.930;2023-02-12T07:56:14;97706.72;;;3.73;100.00
49841;BME280;35738;49.890;5.930;2023-02-12T07:58:42;97707.06;;;3.65;100.00
49841;BME280;35738;49.890;5.930;2023-02-12T08:03:39;97710.13;;;3.80;100.00
49841;BME280;35738;49.890;5.930;2023-02-12T08:06:17;97709.22;;;3.74;100.00
49841;BME280;35738;49.890;5.930;2023-02-12T08:08:45;97713.25;;;3.60;100.00
49841;BME280;35738;49.890;5.930;2023-02-12T08:11:13;97714.41;;;3.76;100.00
49841;BME280;35738;49.890;5.930;2023-02-12T08:13:40;97712.88;;;3.68;100.00
49841;BME280;35738;49.890;5.930;2023-02-12T08:16:09;97716.78;;;3.72;100.00
49841;BME280;35738;49.890;5.930;2023-02-12T08:18:37;97714.66;;;3.74;100.00
49841;BME280;35738;49.890;5.930;2023-02-12T08:21:10;97715.59;;;3.80;100.00
49841;BME280;35738;49.890;5.930;2023-02-12T08:23:37;97708.97;;;3.76;100.00
49841;BME280;35738;49.890;5.930;2023-02-12T08:26:18;97716.28;;;3.87;100.00
49841;BME280;35738;49.890;5.930;2023-02-12T08:28:53;97712.13;;;3.85;100.00
49841;BME280;35738;49.890;5.930;2023-02-12T08:31:23;97712.75;;;3.75;100.00
49841;BME280;35738;49.890;5.930;2023-02-12T08:33:51;97711.31;;;3.84;100.00
49841;BME280;35738;49.890;5.930;2023-02-12T08:36:20;97713.94;;;3.79;100.00
49841;BME280;35738;49.890;5.930;2023-02-12T08:38:47;97717.53;;;3.96;100.00
49841;BME280;35738;49.890;5.930;2023-02-12T08:41:22;97713.16;;;3.95;100.00
49841;BME280;35738;49.890;5.930;2023-02-12T08:43:51;97722.09;;;4.07;100.00
49841;BME280;35738;49.890;5.930;2023-02-12T08:46:20;97712.03;;;4.08;100.00
49841;BME280;35738;49.890;5.930;2023-02-12T08:48:50;97709.50;;;4.18;100.00
49841;BME280;35738;49.890;5.930;2023-02-12T08:51:19;97713.41;;;4.22;100.00
49841;BME280;35738;49.890;5.930;2023-02-12T08:53:50;97717.16;;;4.04;100.00
49841;BME280;35738;49.890;5.930;2023-02-12T08:56:17;97709.16;;;4.14;100.00
49841;BME280;35738;49.890;5.930;2023-02-12T08:58:44;97708.28;;;4.26;100.00
49841;BME280;35738;49.890;5.930;2023-02-12T09:01:15;97708.63;;;4.58;100.00
49841;BME280;35738;49.890;5.930;2023-02-12T09:03:43;97704.53;;;4.43;100.00
49841;BME280;35738;49.890;5.930;2023-02-12T09:06:10;97707.22;;;4.55;100.00
49841;BME280;35738;49.890;5.930;2023-02-12T09:08:38;97714.13;;;4.46;100.00
49841;BME280;35738;49.890;5.930;2023-02-12T09:11:07;97712.13;;;4.41;100.00
49841;BME280;35738;49.890;5.930;2023-02-12T09:13:34;97699.75;;;4.05;100.00
49841;BME280;35738;49.890;5.930;2023-02-12T09:16:02;97709.41;;;4.13;100.00
49841;BME280;35738;49.890;5.930;2023-02-12T09:18:30;97703.16;;;4.12;100.00
49841;BME280;35738;49.890;5.930;2023-02-12T09:21:05;97707.28;;;4.15;100.00
49841;BME280;35738;49.890;5.930;2023-02-12T09:23:33;97714.22;;;4.23;100.00
49841;BME280;35738;49.890;5.930;2023-02-12T09:26:06;97712.22;;;4.18;100.00
49841;BME280;35738;49.890;5.930;2023-02-12T09:28:35;97710.81;;;4.15;100.00
49841;BME280;35738;49.890;5.930;2023-02-12T09:31:11;97706.66;;;4.41;100.00
49841;BME280;35738;49.890;5.930;2023-02-12T09:33:40;97712.28;;;4.06;100.00
49841;BME280;35738;49.890;5.930;2023-02-12T09:36:10;97710.34;;;4.19;100.00
49841;BME280;35738;49.890;5.930;2023-02-12T09:38:37;97702.81;;;4.09;100.00
49841;BME280;35738;49.890;5.930;2023-02-12T09:41:22;97709.22;;;4.03;100.00
49841;BME280;35738;49.890;5.930;2023-02-12T09:52:21;97692.59;;;4.16;100.00
49841;BME280;35738;49.890;5.930;2023-02-12T09:54:50;97705.91;;;4.29;100.00
49841;BME280;35738;49.890;5.930;2023-02-12T09:57:22;97706.97;;;4.28;100.00
49841;BME280;35738;49.890;5.930;2023-02-12T09:59:55;97710.63;;;4.34;100.00
49841;BME280;35738;49.890;5.930;2023-02-12T10:02:23;97710.09;;;4.49;100.00
49841;BME280;35738;49.890;5.930;2023-02-12T10:04:50;97706.72;;;4.30;100.00
49841;BME280;35738;49.890;5.930;2023-02-12T10:15:37;97717.28;;;4.55;100.00
49841;BME280;35738;49.890;5.930;2023-02-12T10:27:02;97697.53;;;4.47;100.00
49841;BME280;35738;49.890;5.930;2023-02-12T10:29:36;97701.03;;;4.76;100.00
49841;BME280;35738;49.890;5.930;2023-02-12T10:32:15;97709.44;;;4.92;100.00
49841;BME280;35738;49.890;5.930;2023-02-12T10:34:47;97708.44;;;4.81;100.00
49841;BME280;35738;49.890;5.930;2023-02-12T10:37:24;97705.31;;;4.72;100.00
49841;BME280;35738;49.890;5.930;2023-02-12T10:39:59;97703.75;;;4.93;100.00
49841;BME280;35738;49.890;5.930;2023-02-12T10:42:37;97693.72;;;5.16;100.00
49841;BME280;35738;49.890;5.930;2023-02-12T10:45:05;97702.91;;;4.93;100.00
49841;BME280;35738;49.890;5.930;2023-02-12T10:47:32;97691.22;;;5.14;100.00
49841;BME280;35738;49.890;5.930;2023-02-12T10:50:00;97702.06;;;5.09;100.00
49841;BME280;35738;49.890;5.930;2023-02-12T10:52:43;97697.13;;;5.06;100.00
49841;BME280;35738;49.890;5.930;2023-02-12T10:57:54;97692.44;;;5.40;100.00
49841;BME280;35738;49.890;5.930;2023-02-12T11:00:29;97693.13;;;5.14;100.00
49841;BME280;35738;49.890;5.930;2023-02-12T11:03:19;97689.25;;;5.26;100.00
49841;BME280;35738;49.890;5.930;2023-02-12T11:05:47;97675.63;;;5.26;100.00
49841;BME280;35738;49.890;5.930;2023-02-12T11:08:36;97680.84;;;5.50;100.00
49841;BME280;35738;49.890;5.930;2023-02-12T11:11:36;97683.88;;;5.53;100.00
49841;BME280;35738;49.890;5.930;2023-02-12T11:14:16;97670.44;;;5.68;100.00
49841;BME280;35738;49.890;5.930;2023-02-12T11:16:58;97669.22;;;5.81;100.00
49841;BME280;35738;49.890;5.930;2023-02-12T11:19:29;97679.44;;;5.69;100.00
49841;BME280;35738;49.890;5.930;2023-02-12T11:22:22;97675.44;;;5.77;100.00
49841;BME280;35738;49.890;5.930;2023-02-12T11:24:59;97663.97;;;5.53;100.00
49841;BME280;35738;49.890;5.930;2023-02-12T11:27:31;97679.56;;;5.57;100.00
49841;BME280;35738;49.890;5.930;2023-02-12T11:32:30;97675.56;;;5.43;100.00
49841;BME280;35738;49.890;5.930;2023-02-12T11:35:14;97670.00;;;5.55;100.00
49841;BME280;35738;49.890;5.930;2023-02-12T11:37:44;97667.84;;;5.57;100.00
49841;BME280;35738;49.890;5.930;2023-02-12T11:40:17;97664.97;;;5.68;100.00
49841;BME280;35738;49.890;5.930;2023-02-12T11:42:54;97662.63;;;5.77;100.00
49841;BME280;35738;49.890;5.930;2023-02-12T11:45:28;97656.88;;;5.95;100.00
49841;BME280;35738;49.890;5.930;2023-02-12T11:47:56;97662.50;;;5.67;100.00
49841;BME280;35738;49.890;5.930;2023-02-12T11:50:30;97653.41;;;5.83;100.00
49841;BME280;35738;49.890;5.930;2023-02-12T11:53:00;97645.44;;;5.98;100.00
49841;BME280;35738;49.890;5.930;2023-02-12T11:55:32;97646.06;;;6.05;100.00
49841;BME280;35738;49.890;5.930;2023-02-12T12:01:00;97643.84;;;6.02;100.00
49841;BME280;35738;49.890;5.930;2023-02-12T12:03:29;97641.31;;;5.96;100.00
49841;BME280;35738;49.890;5.930;2023-02-12T12:06:04;97644.41;;;6.04;100.00
49841;BME280;35738;49.890;5.930;2023-02-12T12:08:39;97645.13;;;5.95;100.00
49841;BME280;35738;49.890;5.930;2023-02-12T12:14:51;97630.22;;;5.86;100.00
49841;BME280;35738;49.890;5.930;2023-02-12T12:21:02;97634.38;;;6.10;100.00
49841;BME280;35738;49.890;5.930;2023-02-12T12:23:45;97638.66;;;5.84;100.00
49841;BME280;35738;49.890;5.930;2023-02-12T12:26:22;97632.78;;;5.92;100.00
49841;BME280;35738;49.890;5.930;2023-02-12T12:29:05;97628.41;;;5.91;100.00
49841;BME280;35738;49.890;5.930;2023-02-12T12:31:51;97623.28;;;5.95;100.00
49841;BME280;35738;49.890;5.930;2023-02-12T12:34:21;97622.34;;;6.11;100.00
49841;BME280;35738;49.890;5.930;2023-02-12T12:42:36;97624.88;;;6.18;100.00
49841;BME280;35738;49.890;5.930;2023-02-12T12:51:13;97627.00;;;6.43;100.00
49841;BME280;35738;49.890;5.930;2023-02-12T12:59:40;97624.22;;;6.05;100.00
49841;BME280;35738;49.890;5.930;2023-02-12T13:05:21;97611.22;;;6.18;100.00
49841;BME280;35738;49.890;5.930;2023-02-12T13:08:12;97607.44;;;6.56;100.00
49841;BME280;35738;49.890;5.930;2023-02-12T13:10:50;97612.50;;;6.10;100.00
49841;BME280;35738;49.890;5.930;2023-02-12T13:13:39;97608.91;;;5.83;100.00
49841;BME280;35738;49.890;5.930;2023-02-12T13:16:20;97611.91;;;6.03;100.00
49841;BME280;35738;49.890;5.930;2023-02-12T13:21:38;97601.94;;;6.19;100.00
49841;BME280;35738;49.890;5.930;2023-02-12T13:27:04;97602.91;;;5.86;100.00
49841;BME280;35738;49.890;5.930;2023-02-12T13:29:38;97593.13;;;6.12;100.00
49841;BME280;35738;49.890;5.930;2023-02-12T13:32:28;97594.69;;;6.02;100.00
49841;BME280;35738;49.890;5.930;2023-02-12T13:34:56;97591.34;;;5.95;100.00
49841;BME280;35738;49.890;5.930;2023-02-12T13:37:43;97585.47;;;5.87;100.00
49841;BME280;35738;49.890;5.930;2023-02-12T13:40:23;97589.84;;;5.88;100.00
49841;BME280;35738;49.890;5.930;2023-02-12T13:43:05;97591.22;;;5.63;100.00
49841;BME280;35738;49.890;5.930;2023-02-12T13:45:43;97589.22;;;5.81;100.00
49841;BME280;35738;49.890;5.930;2023-02-12T13:48:32;97592.91;;;5.91;100.00
49841;BME280;35738;49.890;5.930;2023-02-12T13:56:36;97585.25;;;5.66;100.00
49841;BME280;35738;49.890;5.930;2023-02-12T14:04:53;97584.47;;;5.71;100.00
49841;BME280;35738;49.890;5.930;2023-02-12T14:07:21;97574.88;;;5.90;100.00
49841;BME280;35738;49.890;5.930;2023-02-12T14:12:26;97574.47;;;5.82;100.00
49841;BME280;35738;49.890;5.930;2023-02-12T14:18:05;97570.97;;;5.86;100.00
49841;BME280;35738;49.890;5.930;2023-02-12T14:20:34;97571.22;;;6.07;100.00
49841;BME280;35738;49.890;5.930;2023-02-12T14:23:23;97563.19;;;5.95;100.00
49841;BME280;35738;49.890;5.930;2023-02-12T14:33:51;97548.16;;;5.70;100.00
49841;BME280;35738;49.890;5.930;2023-02-12T14:39:26;97554.50;;;5.98;100.00
49841;BME280;35738;49.890;5.930;2023-02-12T14:41:55;97551.31;;;5.84;100.00
49841;BME280;35738;49.890;5.930;2023-02-12T14:45:03;97559.34;;;5.69;100.00
49841;BME280;35738;49.890;5.930;2023-02-12T14:50:22;97551.81;;;5.81;100.00
49841;BME280;35738;49.890;5.930;2023-02-12T14:52:52;97554.50;;;5.76;100.00
49841;BME280;35738;49.890;5.930;2023-02-12T14:55:23;97558.72;;;5.62;100.00
49841;BME280;35738;49.890;5.930;2023-02-12T14:58:00;97561.69;;;5.60;100.00
49841;BME280;35738;49.890;5.930;2023-02-12T15:00:39;97557.59;;;5.85;100.00
49841;BME280;35738;49.890;5.930;2023-02-12T15:05:49;97556.25;;;5.60;100.00
49841;BME280;35738;49.890;5.930;2023-02-12T15:08:25;97560.41;;;5.68;100.00
49841;BME280;35738;49.890;5.930;2023-02-12T15:13:59;97567.69;;;5.57;100.00
49841;BME280;35738;49.890;5.930;2023-02-12T15:19:01;97564.75;;;5.64;100.00
49841;BME280;35738;49.890;5.930;2023-02-12T15:21:31;97563.66;;;5.65;100.00
49841;BME280;35738;49.890;5.930;2023-02-12T15:26:31;97561.03;;;5.48;100.00
49841;BME280;35738;49.890;5.930;2023-02-12T15:28:59;97562.88;;;5.42;100.00
49841;BME280;35738;49.890;5.930;2023-02-12T15:31:29;97563.94;;;5.41;100.00
49841;BME280;35738;49.890;5.930;2023-02-12T15:33:59;97566.47;;;5.48;100.00
49841;BME280;35738;49.890;5.930;2023-02-12T15:36:29;97560.41;;;5.41;100.00
49841;BME280;35738;49.890;5.930;2023-02-12T15:38:58;97561.41;;;5.57;100.00
49841;BME280;35738;49.890;5.930;2023-02-12T15:41:34;97569.13;;;5.65;100.00
49841;BME280;35738;49.890;5.930;2023-02-12T15:44:16;97567.00;;;5.45;100.00
49841;BME280;35738;49.890;5.930;2023-02-12T15:46:58;97563.53;;;5.28;100.00
49841;BME280;35738;49.890;5.930;2023-02-12T15:49:33;97565.91;;;5.46;100.00
49841;BME280;35738;49.890;5.930;2023-02-12T15:52:15;97563.09;;;5.63;100.00
49841;BME280;35738;49.890;5.930;2023-02-12T15:54:47;97563.78;;;5.26;100.00
49841;BME280;35738;49.890;5.930;2023-02-12T15:57:22;97567.97;;;5.34;100.00
49841;BME280;35738;49.890;5.930;2023-02-12T15:59:51;97563.19;;;5.24;100.00